Cirencester, United Kingdom
Current Conditions -  °F | °C
As of 7:58 AM on Sunday 26 Oct 2014 (Local Time) from EGVA Reporting Station
Overcast Overcast  
Wind Chill: 54°   Ceiling: 2800
Heat Index: 54°   Visibility: 6mi
Dew Point: 46°   Wind: 13mph
Humidity: 76%   Direction: 230°SW
Pressure: 30.1"   Gusts: NA
Location:  51.72°N, 1.97°W
Report Text: EGVA 260658Z AUTO 23011KT 9999 OVC028 12/08 A3010 RMK AO2 SLP197 T01200078
Loading
Personal Weather Stations






























Interactive Weather Map
Tropical Storm Tracking
New forecast layout! Learn more

10-Day Weather Forecast

Advertisements
Track Severe Weather on mobile